Time;durP1;ratioP1;P1;durP2;ratioP2;P2;SDS_P1;SDS_P2;PMS_P1;PMS_P2;Temp;Humidity;BMP_temperature;BMP_pressure;BME280_temperature;BME280_humidity;BME280_pressure;Samples;Min_cycle;Max_cycle;Signal;HPM_P1;HPM_P2
2023/12/22 00:00:33;;;;;;;1.80;1.60;;;8.50;98.00;;;;;;5013179;28;20462;-67
2023/12/22 00:03:00;;;;;;;2.17;1.50;;;8.50;98.00;;;;;;5013499;28;20456;-67
2023/12/22 00:05:27;;;;;;;4.03;1.60;;;8.40;98.00;;;;;;5013055;28;20854;-68
2023/12/22 00:07:55;;;;;;;1.90;1.57;;;8.40;98.00;;;;;;5013208;28;20491;-67
2023/12/22 00:10:22;;;;;;;1.83;1.63;;;8.40;98.00;;;;;;5013108;28;20939;-68
2023/12/22 00:12:49;;;;;;;2.57;1.67;;;8.30;98.00;;;;;;5013199;28;20465;-67
2023/12/22 00:15:17;;;;;;;5.73;1.93;;;8.30;98.00;;;;;;5012414;28;20815;-66
2023/12/22 00:17:44;;;;;;;2.70;1.50;;;8.30;98.00;;;;;;5013130;28;20460;-67
2023/12/22 00:20:14;;;;;;;1.97;1.57;;;8.30;98.00;;;;;;5013031;28;20460;-67
2023/12/22 00:22:41;;;;;;;4.70;1.83;;;8.30;98.00;;;;;;5012886;28;20483;-67
2023/12/22 00:25:10;;;;;;;4.30;2.00;;;8.30;98.00;;;;;;5012655;28;20463;-67
2023/12/22 00:27:37;;;;;;;5.53;1.60;;;8.40;98.00;;;;;;5012789;28;20456;-67
2023/12/22 00:30:04;;;;;;;3.33;1.60;;;8.30;98.00;;;;;;5029978;28;20459;-67
2023/12/22 00:32:31;;;;;;;2.13;1.60;;;8.40;98.00;;;;;;5032349;28;20967;-67
2023/12/22 00:34:58;;;;;;;4.60;1.83;;;8.30;98.00;;;;;;5032146;28;20461;-67
2023/12/22 00:37:31;;;;;;;7.37;1.60;;;8.40;98.00;;;;;;5032000;28;20483;-67
2023/12/22 00:39:58;;;;;;;1.30;1.30;;;8.40;98.00;;;;;;5032146;28;20459;-67
2023/12/22 00:42:27;;;;;;;2.90;1.73;;;8.50;98.00;;;;;;5014436;28;20972;-66
2023/12/22 00:44:54;;;;;;;2.63;1.60;;;8.50;98.00;;;;;;5031502;28;20476;-67
2023/12/22 00:47:22;;;;;;;2.80;1.70;;;8.50;98.00;;;;;;5032039;28;20507;-67
2023/12/22 00:49:49;;;;;;;1.57;1.47;;;8.50;98.00;;;;;;5032031;28;20488;-67
2023/12/22 00:52:16;;;;;;;2.13;1.23;;;8.40;98.00;;;;;;5031852;28;20509;-67
2023/12/22 00:54:43;;;;;;;5.00;1.67;;;8.20;98.00;;;;;;5032208;28;20452;-67
2023/12/22 00:57:11;;;;;;;12.97;1.50;;;8.00;98.00;;;;;;5032024;28;20483;-67
2023/12/22 00:59:45;;;;;;;1.40;1.30;;;7.70;98.00;;;;;;5032123;28;20454;-67
2023/12/22 01:02:12;;;;;;;1.40;1.30;;;7.30;98.00;;;;;;5032156;28;20464;-68
2023/12/22 01:04:39;;;;;;;1.33;1.17;;;7.10;98.00;;;;;;5031778;28;20456;-67
2023/12/22 01:07:08;;;;;;;1.33;1.13;;;6.90;98.00;;;;;;5031985;28;20497;-67
2023/12/22 01:09:36;;;;;;;1.30;1.20;;;6.80;98.00;;;;;;5014225;28;20576;-66
2023/12/22 01:12:03;;;;;;;1.20;1.13;;;6.80;98.00;;;;;;5032039;28;20462;-67
2023/12/22 01:14:31;;;;;;;1.90;1.40;;;6.60;98.00;;;;;;5031545;28;20499;-67
2023/12/22 01:17:00;;;;;;;1.50;1.10;;;6.60;98.00;;;;;;5031643;28;20485;-67
2023/12/22 01:19:27;;;;;;;1.60;1.20;;;6.60;98.00;;;;;;5031588;28;20461;-67
2023/12/22 01:21:54;;;;;;;1.50;1.30;;;6.60;98.00;;;;;;5031919;28;21111;-67
2023/12/22 01:24:21;;;;;;;1.60;1.27;;;6.60;98.00;;;;;;5031432;28;20461;-68
2023/12/22 01:26:52;;;;;;;1.77;1.40;;;6.60;98.00;;;;;;5032359;28;20461;-67
2023/12/22 01:29:19;;;;;;;1.50;1.20;;;6.60;98.00;;;;;;5035504;28;20460;-66
2023/12/22 01:31:46;;;;;;;1.60;1.33;;;6.60;98.00;;;;;;5035804;28;20459;-67
2023/12/22 01:34:14;;;;;;;1.70;1.30;;;6.60;98.00;;;;;;5035448;28;20860;-67
2023/12/22 01:36:41;;;;;;;1.30;1.30;;;6.70;98.00;;;;;;5035610;28;21041;-67
2023/12/22 01:39:09;;;;;;;2.80;1.27;;;6.70;98.00;;;;;;5035515;28;20454;-67
2023/12/22 01:41:36;;;;;;;2.03;1.40;;;6.70;98.00;;;;;;5035411;28;20471;-67
2023/12/22 01:44:03;;;;;;;1.60;1.30;;;6.90;98.00;;;;;;5035534;28;20457;-68
2023/12/22 01:46:30;;;;;;;1.30;1.20;;;6.90;98.00;;;;;;5035476;28;20461;-67
2023/12/22 01:49:00;;;;;;;2.37;1.40;;;6.80;98.00;;;;;;5035572;28;20459;-66
2023/12/22 01:51:30;;;;;;;1.50;1.20;;;6.80;98.00;;;;;;5018347;28;20865;-67
2023/12/22 01:53:57;;;;;;;2.60;1.50;;;6.70;98.00;;;;;;5035476;28;20461;-68
2023/12/22 01:56:25;;;;;;;2.33;1.60;;;6.70;98.00;;;;;;5035267;28;20486;-68
2023/12/22 01:58:54;;;;;;;1.50;1.30;;;6.80;98.00;;;;;;5035555;28;20456;-67
2023/12/22 02:01:21;;;;;;;1.80;1.40;;;6.90;98.00;;;;;;5035201;28;20478;-67
2023/12/22 02:03:52;;;;;;;4.60;1.60;;;6.80;98.00;;;;;;5035364;28;20494;-67
2023/12/22 02:06:19;;;;;;;6.30;1.63;;;6.80;98.00;;;;;;5035280;28;20470;-67
2023/12/22 02:08:48;;;;;;;2.30;1.40;;;6.80;98.00;;;;;;5035011;28;20458;-67
2023/12/22 02:11:16;;;;;;;2.13;1.60;;;6.70;98.00;;;;;;5034964;28;20466;-67
2023/12/22 02:13:45;;;;;;;7.33;1.80;;;6.80;98.00;;;;;;5034810;28;20452;-67
2023/12/22 02:16:19;;;;;;;1.40;1.30;;;7.00;98.00;;;;;;5034619;28;20490;-67
2023/12/22 02:18:50;;;;;;;2.20;1.40;;;7.10;98.00;;;;;;5034716;28;20462;-67
2023/12/22 02:21:17;;;;;;;5.03;1.63;;;7.20;98.00;;;;;;5034739;28;20470;-67
2023/12/22 02:23:48;;;;;;;7.33;1.40;;;7.30;98.00;;;;;;5034795;28;20459;-67
2023/12/22 02:26:25;;;;;;;3.53;1.70;;;7.30;98.00;;;;;;5034650;28;20451;-67
2023/12/22 02:28:53;;;;;;;8.40;1.50;;;7.30;98.00;;;;;;5034338;28;20454;-67
2023/12/22 02:31:28;;;;;;;3.33;1.57;;;7.40;98.00;;;;;;5034419;28;20462;-66
2023/12/22 02:33:57;;;;;;;1.80;1.30;;;7.40;98.00;;;;;;5034398;28;20468;-68
2023/12/22 02:36:26;;;;;;;2.87;1.43;;;7.40;98.00;;;;;;5034141;28;20510;-69
2023/12/22 02:38:57;;;;;;;1.60;1.30;;;7.50;98.00;;;;;;5033504;28;20461;-67
2023/12/22 02:41:24;;;;;;;3.60;1.53;;;7.60;98.00;;;;;;5034334;28;20450;-68
2023/12/22 02:43:52;;;;;;;1.70;1.20;;;7.70;98.00;;;;;;5034398;28;20840;-68
2023/12/22 02:46:18;;;;;;;6.53;1.50;;;7.80;98.00;;;;;;5033508;28;20978;-67
2023/12/22 02:48:45;;;;;;;1.93;1.30;;;7.80;98.00;;;;;;5033609;28;20455;-67
2023/12/22 02:51:12;;;;;;;4.73;1.50;;;7.80;98.00;;;;;;5033407;28;20454;-67
2023/12/22 02:53:39;;;;;;;5.43;1.37;;;7.90;98.00;;;;;;5034073;28;20460;-67
2023/12/22 02:56:09;;;;;;;1.37;1.20;;;7.90;98.00;;;;;;5034000;28;20456;-67
2023/12/22 02:58:36;;;;;;;1.97;1.37;;;7.90;98.00;;;;;;5034199;28;20454;-67
2023/12/22 03:01:03;;;;;;;1.40;1.30;;;8.00;98.00;;;;;;5033972;28;20959;-67
2023/12/22 03:03:30;;;;;;;1.83;1.30;;;8.00;98.00;;;;;;5033857;28;20448;-67
2023/12/22 03:05:57;;;;;;;3.23;1.30;;;7.90;98.00;;;;;;5033952;28;20458;-67
2023/12/22 03:08:25;;;;;;;1.50;1.30;;;8.00;98.00;;;;;;5033895;28;20828;-66
2023/12/22 03:10:52;;;;;;;2.63;1.53;;;8.00;98.00;;;;;;5033818;28;20460;-66
2023/12/22 03:13:20;;;;;;;2.80;1.60;;;8.00;98.00;;;;;;5033772;28;20466;-67
2023/12/22 03:15:48;;;;;;;2.17;1.60;;;8.00;98.00;;;;;;5033771;28;20532;-68
2023/12/22 03:18:16;;;;;;;3.53;1.50;;;8.10;98.00;;;;;;5033644;28;21009;-67
2023/12/22 03:20:43;;;;;;;4.70;1.50;;;8.10;98.00;;;;;;5032106;28;20459;-68
2023/12/22 03:23:10;;;;;;;1.83;1.60;;;8.10;98.00;;;;;;5033588;28;20448;-67
2023/12/22 03:25:37;;;;;;;2.50;1.50;;;8.10;98.00;;;;;;5032762;28;20460;-67
2023/12/22 03:28:06;;;;;;;3.33;1.60;;;8.20;98.00;;;;;;5033616;28;20808;-67
2023/12/22 03:30:37;;;;;;;2.13;1.30;;;8.20;98.00;;;;;;5033134;28;20451;-66
2023/12/22 03:33:06;;;;;;;2.53;1.47;;;8.20;98.00;;;;;;5033498;28;20459;-68
2023/12/22 03:35:33;;;;;;;2.40;1.70;;;8.20;98.00;;;;;;5033494;28;20445;-67
2023/12/22 03:38:00;;;;;;;6.13;1.90;;;8.20;98.00;;;;;;5033350;28;20490;-67
2023/12/22 03:40:50;;;;;;;1.30;1.30;;;8.30;98.00;;;;;;5033339;28;20463;-67
2023/12/22 03:43:20;;;;;;;6.50;1.60;;;8.30;98.00;;;;;;5033218;28;21020;-67
2023/12/22 03:45:49;;;;;;;2.53;1.40;;;8.50;98.00;;;;;;5033321;28;20461;-67
2023/12/22 03:48:16;;;;;;;1.90;1.30;;;8.60;98.00;;;;;;5015637;28;20454;-67
2023/12/22 03:50:43;;;;;;;2.70;1.50;;;8.60;98.00;;;;;;5032115;28;20497;-68
2023/12/22 03:53:10;;;;;;;1.83;1.50;;;8.60;98.00;;;;;;5033237;28;20456;-67
2023/12/22 03:55:37;;;;;;;5.23;1.90;;;8.60;98.00;;;;;;5033193;28;20585;-67
2023/12/22 03:58:07;;;;;;;2.27;1.67;;;8.60;98.00;;;;;;5033369;28;20480;-68
2023/12/22 04:00:34;;;;;;;3.23;1.50;;;8.60;98.00;;;;;;5032983;28;20457;-67
2023/12/22 04:03:02;;;;;;;5.27;1.40;;;8.50;98.00;;;;;;5033273;28;20450;-67
2023/12/22 04:05:30;;;;;;;3.50;1.30;;;8.60;98.00;;;;;;5032877;28;20514;-67
2023/12/22 04:07:58;;;;;;;5.83;1.70;;;8.60;98.00;;;;;;5032834;28;20453;-68
2023/12/22 04:10:25;;;;;;;2.03;1.20;;;8.60;98.00;;;;;;5032436;28;20463;-68
2023/12/22 04:12:52;;;;;;;1.20;1.10;;;8.50;98.00;;;;;;5032707;28;20450;-67
2023/12/22 04:15:19;;;;;;;4.43;1.60;;;8.50;98.00;;;;;;5032783;28;20936;-66
2023/12/22 04:17:46;;;;;;;3.10;1.63;;;8.50;98.00;;;;;;5032616;28;20492;-67
2023/12/22 04:20:14;;;;;;;4.73;1.50;;;8.30;98.00;;;;;;5029784;28;20461;-67
2023/12/22 04:22:41;;;;;;;2.90;1.47;;;8.20;98.00;;;;;;5012807;28;20452;-67
2023/12/22 04:25:09;;;;;;;3.10;1.30;;;7.90;98.00;;;;;;5012617;28;20457;-67
2023/12/22 04:27:36;;;;;;;2.70;1.30;;;7.60;98.00;;;;;;5012668;28;20883;-67
2023/12/22 04:30:03;;;;;;;1.50;1.20;;;7.40;98.00;;;;;;5012430;28;20461;-68
2023/12/22 04:32:30;;;;;;;1.30;1.30;;;7.20;98.00;;;;;;5012617;28;20498;-67
2023/12/22 04:34:57;;;;;;;1.50;1.30;;;7.10;98.00;;;;;;5012305;28;21012;-67
2023/12/22 04:37:26;;;;;;;3.10;1.63;;;7.00;98.00;;;;;;5012371;28;20849;-67
2023/12/22 04:39:53;;;;;;;1.40;1.23;;;6.80;98.00;;;;;;5012495;28;20465;-67
2023/12/22 04:42:20;;;;;;;2.80;1.40;;;6.80;98.00;;;;;;4994974;28;20447;-67
2023/12/22 04:44:47;;;;;;;1.87;1.20;;;6.80;98.00;;;;;;5012309;28;20459;-67
2023/12/22 04:47:16;;;;;;;1.73;1.53;;;6.80;98.00;;;;;;5012377;28;20932;-67
2023/12/22 04:49:43;;;;;;;1.93;1.50;;;6.90;98.00;;;;;;5012230;28;20992;-67
2023/12/22 04:52:11;;;;;;;6.50;1.63;;;7.00;98.00;;;;;;5012529;28;20454;-67
2023/12/22 04:54:40;;;;;;;10.43;1.50;;;7.00;98.00;;;;;;5012105;28;20458;-67
2023/12/22 04:57:07;;;;;;;2.40;1.23;;;7.10;98.00;;;;;;5012128;28;20495;-67
2023/12/22 04:59:34;;;;;;;5.37;1.60;;;7.20;98.00;;;;;;5012139;28;20453;-67
2023/12/22 05:02:01;;;;;;;5.27;1.90;;;7.40;98.00;;;;;;5011813;28;20455;-67
2023/12/22 05:04:29;;;;;;;4.00;1.57;;;7.50;98.00;;;;;;5012154;28;20815;-67
2023/12/22 05:06:56;;;;;;;4.00;1.70;;;7.40;98.00;;;;;;5012093;28;20945;-67
2023/12/22 05:09:24;;;;;;;2.57;1.67;;;7.40;98.00;;;;;;5012217;28;20452;-66
2023/12/22 05:11:53;;;;;;;6.10;1.53;;;7.40;98.00;;;;;;5012253;28;20452;-68
2023/12/22 05:14:20;;;;;;;4.43;1.47;;;7.40;98.00;;;;;;5012150;28;20513;-67
2023/12/22 05:16:47;;;;;;;9.60;1.73;;;7.30;98.00;;;;;;5012246;28;20479;-67
2023/12/22 05:19:14;;;;;;;5.90;1.60;;;7.40;98.00;;;;;;5012010;28;20449;-66
2023/12/22 05:21:41;;;;;;;4.27;1.60;;;7.50;98.00;;;;;;5012379;28;20453;-67
2023/12/22 05:24:08;;;;;;;3.47;1.30;;;7.60;98.00;;;;;;5012072;28;20451;-67
2023/12/22 05:26:35;;;;;;;1.40;1.30;;;7.80;98.00;;;;;;5012183;28;20448;-67
2023/12/22 05:29:03;;;;;;;3.13;1.47;;;7.80;98.00;;;;;;5011953;28;20452;-67
2023/12/22 05:31:38;;;;;;;1.50;1.27;;;7.90;98.00;;;;;;5011904;28;20459;-68
2023/12/22 05:34:05;;;;;;;4.93;1.93;;;8.00;98.00;;;;;;5012174;28;20465;-66
2023/12/22 05:36:32;;;;;;;2.80;1.60;;;8.00;98.00;;;;;;5011664;28;20526;-67
2023/12/22 05:38:59;;;;;;;3.63;1.60;;;8.00;98.00;;;;;;5011874;28;20619;-67
2023/12/22 05:41:26;;;;;;;3.93;1.63;;;8.00;98.00;;;;;;5011832;28;20525;-67
2023/12/22 05:43:54;;;;;;;3.40;1.63;;;8.00;98.00;;;;;;5012056;28;20465;-66
2023/12/22 05:46:23;;;;;;;7.63;2.37;;;8.10;98.00;;;;;;5012069;28;20449;-66
2023/12/22 05:48:50;;;;;;;3.20;1.77;;;8.10;98.00;;;;;;5012202;28;20456;-67
2023/12/22 05:51:17;;;;;;;1.40;1.30;;;8.10;98.00;;;;;;5012034;28;20454;-66
2023/12/22 05:53:45;;;;;;;3.50;1.60;;;8.10;98.00;;;;;;5011888;28;20983;-67
2023/12/22 05:56:19;;;;;;;4.70;1.60;;;8.00;98.00;;;;;;5011425;28;20460;-66
2023/12/22 05:58:46;;;;;;;8.23;2.13;;;7.90;98.00;;;;;;5011569;28;20528;-67
2023/12/22 06:01:17;;;;;;;3.90;1.70;;;7.90;98.00;;;;;;5011859;28;20455;-67
2023/12/22 06:03:45;;;;;;;3.70;1.57;;;7.70;98.00;;;;;;5011762;28;20818;-67
2023/12/22 06:06:12;;;;;;;4.30;1.70;;;7.80;98.00;;;;;;5011691;28;20464;-67
2023/12/22 06:08:39;;;;;;;3.20;1.80;;;7.70;98.00;;;;;;5011399;28;20453;-67
2023/12/22 06:11:08;;;;;;;8.47;2.33;;;7.80;98.00;;;;;;5011456;28;20532;-67
2023/12/22 06:13:35;;;;;;;3.00;1.57;;;7.90;98.00;;;;;;4994635;28;20790;-67
2023/12/22 06:16:03;;;;;;;2.30;1.53;;;7.90;98.00;;;;;;5015011;28;20455;-66
2023/12/22 06:18:30;;;;;;;5.37;1.77;;;8.00;98.00;;;;;;5014826;28;20492;-67
2023/12/22 06:20:58;;;;;;;5.43;1.83;;;8.10;98.00;;;;;;5014800;28;20465;-66
2023/12/22 06:23:25;;;;;;;3.17;1.70;;;8.20;98.00;;;;;;5014915;28;20453;-67
2023/12/22 06:25:52;;;;;;;5.23;1.83;;;8.20;98.00;;;;;;5015135;28;20455;-67
2023/12/22 06:28:19;;;;;;;3.43;1.87;;;8.30;98.00;;;;;;5014743;28;20448;-66
2023/12/22 06:30:47;;;;;;;5.63;2.30;;;8.30;98.00;;;;;;5014522;28;20450;-67
2023/12/22 06:33:14;;;;;;;3.93;1.70;;;8.40;98.00;;;;;;5014584;28;20461;-67
2023/12/22 06:35:41;;;;;;;4.60;1.83;;;8.40;98.00;;;;;;5014821;28;20459;-66
2023/12/22 06:38:11;;;;;;;1.80;1.50;;;8.40;98.00;;;;;;5014613;28;21045;-68
2023/12/22 06:40:38;;;;;;;4.83;1.60;;;8.40;98.00;;;;;;5014590;28;20459;-66
2023/12/22 06:43:05;;;;;;;5.03;1.70;;;8.40;98.00;;;;;;5014498;28;20456;-68
2023/12/22 06:45:32;;;;;;;5.17;2.10;;;8.30;98.00;;;;;;5014419;28;20858;-67
2023/12/22 06:47:59;;;;;;;4.40;1.90;;;8.30;98.00;;;;;;5014501;28;20461;-67
2023/12/22 06:50:26;;;;;;;2.70;1.77;;;8.10;98.00;;;;;;5014410;28;20466;-67
2023/12/22 06:52:53;;;;;;;6.83;1.83;;;8.10;98.00;;;;;;5014428;28;20858;-67
2023/12/22 06:55:22;;;;;;;4.60;1.90;;;8.10;98.00;;;;;;5014360;28;20538;-66
2023/12/22 06:57:50;;;;;;;4.50;1.57;;;8.10;98.00;;;;;;5014216;28;20495;-68
2023/12/22 07:00:18;;;;;;;3.43;1.70;;;8.20;98.00;;;;;;4996970;28;20455;-66
2023/12/22 07:02:45;;;;;;;3.07;1.37;;;8.30;98.00;;;;;;5014199;28;20979;-62
2023/12/22 07:05:36;;;;;;;2.60;1.60;;;8.30;98.00;;;;;;5014114;28;20488;-63
2023/12/22 07:08:06;;;;;;;2.97;1.60;;;8.40;98.00;;;;;;5014175;28;20459;-63
2023/12/22 07:10:34;;;;;;;3.37;1.70;;;8.50;98.00;;;;;;4996835;28;20540;-63
2023/12/22 07:13:01;;;;;;;5.27;1.97;;;8.50;98.00;;;;;;5014186;28;20543;-63
2023/12/22 07:15:28;;;;;;;2.83;1.70;;;8.50;98.00;;;;;;5014127;28;20947;-63
2023/12/22 07:17:59;;;;;;;2.80;1.70;;;8.60;98.00;;;;;;5014100;28;20519;-63
2023/12/22 07:20:26;;;;;;;3.43;1.60;;;8.50;98.00;;;;;;4997417;28;20493;-63
2023/12/22 07:22:53;;;;;;;10.57;1.77;;;8.50;98.00;;;;;;4996728;28;20458;-62
2023/12/22 07:25:21;;;;;;;2.20;1.60;;;8.60;98.00;;;;;;5013783;28;20466;-63
2023/12/22 07:27:49;;;;;;;1.90;1.40;;;8.60;98.00;;;;;;5013882;28;20454;-63
2023/12/22 07:30:17;;;;;;;3.10;1.63;;;8.60;98.00;;;;;;5013757;28;20467;-63
2023/12/22 07:32:51;;;;;;;2.63;1.50;;;8.60;98.00;;;;;;5013974;28;20466;-63
2023/12/22 07:35:18;;;;;;;3.87;2.03;;;8.50;98.00;;;;;;5013680;28;20546;-63
2023/12/22 07:37:45;;;;;;;2.60;1.70;;;8.40;98.00;;;;;;5013483;28;20483;-63
2023/12/22 07:40:14;;;;;;;4.37;1.90;;;8.50;98.00;;;;;;5013563;28;20461;-63
2023/12/22 07:42:41;;;;;;;4.30;1.60;;;8.50;98.00;;;;;;5013215;28;20451;-63
2023/12/22 07:45:10;;;;;;;4.77;1.63;;;8.50;98.00;;;;;;5013172;28;20528;-63
2023/12/22 07:47:37;;;;;;;4.57;1.87;;;8.50;98.00;;;;;;5013499;28;20550;-63
2023/12/22 07:50:08;;;;;;;3.23;1.57;;;8.40;98.00;;;;;;5013224;28;20464;-63
2023/12/22 07:52:37;;;;;;;4.30;1.70;;;8.50;98.00;;;;;;5012952;28;20533;-63
2023/12/22 07:55:06;;;;;;;3.83;1.50;;;8.50;98.00;;;;;;4995389;28;20966;-63
2023/12/22 07:57:34;;;;;;;2.10;1.63;;;8.50;98.00;;;;;;5012445;28;20465;-63
2023/12/22 08:00:01;;;;;;;3.53;1.53;;;8.50;98.00;;;;;;5013009;28;20469;-63
2023/12/22 08:02:32;;;;;;;2.10;1.43;;;8.50;98.00;;;;;;5013371;28;20556;-63
2023/12/22 08:04:59;;;;;;;3.50;1.40;;;8.60;98.00;;;;;;5012768;28;20462;-63
2023/12/22 08:07:26;;;;;;;4.40;1.43;;;8.60;98.00;;;;;;5012939;28;20462;-63
2023/12/22 08:09:53;;;;;;;4.50;1.40;;;8.60;98.00;;;;;;5012920;28;20482;-62
2023/12/22 08:12:21;;;;;;;3.93;1.70;;;8.60;98.00;;;;;;5002685;28;20468;-63
2023/12/22 08:14:48;;;;;;;1.93;1.37;;;8.70;98.00;;;;;;5012677;28;20464;-63
2023/12/22 08:17:17;;;;;;;2.60;1.37;;;8.60;98.00;;;;;;5026520;28;20461;-63
2023/12/22 08:19:46;;;;;;;3.00;1.67;;;8.60;98.00;;;;;;5015091;28;20486;-63
2023/12/22 08:22:13;;;;;;;6.20;1.83;;;8.50;98.00;;;;;;5014866;28;20462;-63
2023/12/22 08:24:41;;;;;;;2.80;1.50;;;8.50;98.00;;;;;;5032356;28;20483;-63
2023/12/22 08:27:17;;;;;;;3.47;2.03;;;8.40;98.00;;;;;;5031719;28;20452;-63
2023/12/22 08:29:44;;;;;;;1.73;1.47;;;8.20;98.00;;;;;;5032378;28;20455;-63
2023/12/22 08:32:12;;;;;;;2.80;1.67;;;8.00;98.00;;;;;;5030932;28;20448;-63
2023/12/22 08:34:39;;;;;;;3.53;1.60;;;7.80;98.00;;;;;;5032143;28;20463;-63
2023/12/22 08:37:08;;;;;;;5.03;1.70;;;7.80;98.00;;;;;;5031292;28;20467;-63
2023/12/22 08:39:35;;;;;;;4.43;1.77;;;7.80;98.00;;;;;;5032244;28;20892;-63
2023/12/22 08:42:02;;;;;;;5.40;1.93;;;7.80;98.00;;;;;;5032033;28;20520;-63
2023/12/22 08:44:29;;;;;;;4.10;1.90;;;7.70;98.00;;;;;;5032144;28;20495;-63
2023/12/22 08:46:56;;;;;;;8.60;1.57;;;7.60;98.00;;;;;;5032014;28;20464;-63
2023/12/22 08:49:23;;;;;;;7.13;1.50;;;7.50;98.00;;;;;;5032165;28;21012;-63
2023/12/22 08:51:50;;;;;;;3.57;1.90;;;7.40;98.00;;;;;;5014320;28;20454;-63
2023/12/22 08:54:22;;;;;;;6.07;1.70;;;7.50;98.00;;;;;;5014475;28;20462;-62
2023/12/22 08:56:50;;;;;;;4.27;1.60;;;7.50;98.00;;;;;;5031992;28;20461;-63
2023/12/22 08:59:17;;;;;;;2.57;1.50;;;7.50;98.00;;;;;;5032057;28;20482;-63
2023/12/22 09:01:44;;;;;;;4.10;1.70;;;7.50;98.00;;;;;;5032001;28;20487;-62
2023/12/22 09:04:12;;;;;;;2.30;1.63;;;7.50;98.00;;;;;;5031961;28;20458;-63
2023/12/22 09:06:40;;;;;;;3.10;1.77;;;7.50;98.00;;;;;;5031875;28;20463;-62
2023/12/22 09:09:07;;;;;;;4.20;1.60;;;7.40;98.00;;;;;;5031818;28;20496;-62
2023/12/22 09:11:36;;;;;;;1.83;1.40;;;7.40;98.00;;;;;;5032011;28;20943;-62
2023/12/22 09:14:02;;;;;;;2.47;1.60;;;7.40;98.00;;;;;;5032095;28;20452;-62
2023/12/22 09:16:29;;;;;;;5.03;1.93;;;7.50;98.00;;;;;;5031951;28;20810;-63
2023/12/22 09:18:56;;;;;;;5.70;1.80;;;7.50;98.00;;;;;;5031850;28;20485;-63
2023/12/22 09:21:23;;;;;;;8.03;1.90;;;7.50;98.00;;;;;;5031851;28;20459;-62
2023/12/22 09:23:50;;;;;;;3.03;1.60;;;7.50;98.00;;;;;;5031954;28;20460;-61
2023/12/22 09:26:17;;;;;;;7.50;1.67;;;7.50;98.00;;;;;;5031900;28;21011;-61
2023/12/22 09:28:49;;;;;;;9.90;1.80;;;7.50;98.00;;;;;;5032219;28;20456;-62
2023/12/22 09:31:16;;;;;;;4.27;1.90;;;7.50;98.00;;;;;;5032024;28;20461;-61
2023/12/22 09:33:51;;;;;;;4.17;1.80;;;7.60;98.00;;;;;;5031849;28;20463;-62
2023/12/22 09:36:19;;;;;;;4.70;1.70;;;7.80;98.00;;;;;;5014969;28;20456;-63
2023/12/22 09:38:46;;;;;;;4.77;1.80;;;7.80;98.00;;;;;;5031495;28;21000;-66
2023/12/22 09:41:13;;;;;;;7.10;1.90;;;7.80;98.00;;;;;;5031290;28;20453;-62
2023/12/22 09:43:41;;;;;;;2.77;1.80;;;7.90;98.00;;;;;;5018729;28;20477;-63
2023/12/22 09:46:11;;;;;;;7.73;1.80;;;8.00;98.00;;;;;;4991967;28;20453;-63
2023/12/22 09:48:39;;;;;;;2.83;1.90;;;8.10;98.00;;;;;;4994008;28;20468;-62
2023/12/22 09:51:08;;;;;;;11.43;3.03;;;8.10;98.00;;;;;;5011510;28;20499;-62
2023/12/22 09:53:36;;;;;;;2.80;1.70;;;8.10;98.00;;;;;;5013804;28;20464;-62
2023/12/22 09:56:04;;;;;;;6.80;2.37;;;8.10;98.00;;;;;;5015187;28;20460;-62
2023/12/22 09:58:32;;;;;;;4.30;1.97;;;8.10;98.00;;;;;;5014265;28;20522;-63
2023/12/22 10:01:02;;;;;;;4.60;2.10;;;8.10;98.00;;;;;;5014834;28;20818;-62
2023/12/22 10:03:31;;;;;;;10.20;2.20;;;8.20;98.00;;;;;;5011921;28;20457;-62
2023/12/22 10:05:58;;;;;;;3.97;2.17;;;8.20;98.00;;;;;;5015046;28;20450;-63
2023/12/22 10:08:27;;;;;;;4.97;2.10;;;8.20;98.00;;;;;;5014839;28;20951;-63
2023/12/22 10:10:56;;;;;;;10.73;2.13;;;8.20;98.00;;;;;;5015178;28;20455;-63
2023/12/22 10:13:23;;;;;;;2.80;1.53;;;8.30;98.00;;;;;;5015046;28;20456;-61
2023/12/22 10:15:51;;;;;;;6.97;1.60;;;8.30;98.00;;;;;;5014344;28;20488;-61
2023/12/22 10:18:18;;;;;;;8.97;2.13;;;8.30;98.00;;;;;;5021371;28;20469;-61
2023/12/22 10:20:48;;;;;;;5.50;2.00;;;8.30;98.00;;;;;;5034721;28;20514;-61
2023/12/22 10:23:15;;;;;;;6.40;1.90;;;8.30;98.00;;;;;;5034552;28;20453;-62
2023/12/22 10:25:42;;;;;;;12.93;2.40;;;8.40;98.00;;;;;;5034522;28;20481;-62
2023/12/22 10:28:13;;;;;;;13.67;2.10;;;8.50;98.00;;;;;;5034432;28;20536;-62
2023/12/22 10:30:41;;;;;;;5.60;2.23;;;8.50;98.00;;;;;;5022333;28;20539;-62
2023/12/22 10:33:08;;;;;;;2.50;1.70;;;8.50;98.00;;;;;;5014500;28;20498;-63
2023/12/22 10:35:35;;;;;;;3.13;1.57;;;8.60;98.00;;;;;;5014708;28;20452;-63
2023/12/22 10:38:05;;;;;;;6.63;1.70;;;8.60;98.00;;;;;;5014560;28;20461;-65
2023/12/22 10:40:32;;;;;;;5.93;1.80;;;8.60;98.00;;;;;;5014441;28;20494;-65
2023/12/22 10:43:01;;;;;;;4.40;1.80;;;8.60;98.00;;;;;;5014549;28;20854;-64
2023/12/22 10:45:30;;;;;;;4.77;1.73;;;8.70;98.00;;;;;;5014319;28;20490;-61
2023/12/22 10:47:59;;;;;;;9.80;1.60;;;8.70;98.00;;;;;;5014643;28;20549;-61
2023/12/22 10:50:26;;;;;;;3.37;1.40;;;8.80;98.00;;;;;;5198288;23;20521;-63
2023/12/22 10:52:55;;;;;;;5.20;1.83;;;8.70;98.00;;;;;;4974020;28;20455;-64
2023/12/22 10:55:24;;;;;;;6.27;2.03;;;8.70;98.00;;;;;;4975059;28;20478;-63
2023/12/22 10:57:52;;;;;;;8.17;2.27;;;8.70;98.00;;;;;;4975722;28;20846;-64
2023/12/22 11:00:21;;;;;;;5.50;1.87;;;8.70;98.00;;;;;;4974766;28;20574;-63
2023/12/22 11:02:49;;;;;;;8.53;2.03;;;8.80;98.00;;;;;;4975522;28;20456;-64
2023/12/22 11:05:19;;;;;;;9.23;1.73;;;8.80;98.00;;;;;;4975194;28;20494;-64
2023/12/22 11:07:50;;;;;;;5.30;1.97;;;8.80;98.00;;;;;;4958100;28;20465;-64
2023/12/22 11:10:21;;;;;;;7.57;1.73;;;8.80;98.00;;;;;;4974988;28;20450;-64
2023/12/22 11:12:51;;;;;;;5.00;2.00;;;8.80;98.00;;;;;;4975237;28;20464;-63
2023/12/22 11:15:20;;;;;;;3.97;1.70;;;8.80;98.00;;;;;;4974833;28;20462;-63
2023/12/22 11:17:49;;;;;;;3.53;1.63;;;8.80;98.00;;;;;;4974820;28;20464;-63
2023/12/22 11:20:17;;;;;;;3.13;1.60;;;8.80;98.00;;;;;;4974300;28;21143;-63
2023/12/22 11:22:45;;;;;;;8.80;1.83;;;8.90;98.00;;;;;;4974630;28;20456;-63
2023/12/22 11:25:14;;;;;;;3.37;1.83;;;8.90;98.00;;;;;;4974597;28;20488;-63
2023/12/22 11:27:44;;;;;;;2.10;1.50;;;8.90;98.00;;;;;;4974447;28;20493;-63
2023/12/22 11:30:13;;;;;;;5.80;1.60;;;8.90;98.00;;;;;;4941261;28;21033;-63
2023/12/22 11:32:40;;;;;;;3.20;1.40;;;8.90;98.00;;;;;;4974446;28;20461;-63
2023/12/22 11:35:09;;;;;;;3.80;1.63;;;8.90;98.00;;;;;;4974507;28;20454;-63
2023/12/22 11:37:36;;;;;;;3.50;1.57;;;8.90;98.00;;;;;;4974474;28;20459;-63
2023/12/22 11:40:05;;;;;;;2.50;1.33;;;8.80;98.00;;;;;;4974231;28;20497;-64
2023/12/22 11:42:36;;;;;;;6.40;1.60;;;8.80;98.00;;;;;;4974150;28;20492;-63
2023/12/22 11:45:04;;;;;;;2.30;1.63;;;8.80;98.00;;;;;;4974374;28;20483;-63
2023/12/22 11:47:34;;;;;;;3.67;1.70;;;8.80;98.00;;;;;;4974232;28;20861;-63
2023/12/22 11:50:01;;;;;;;3.53;1.57;;;8.80;98.00;;;;;;4974144;28;20498;-64
2023/12/22 11:52:29;;;;;;;4.00;1.67;;;8.80;98.00;;;;;;4973646;28;20460;-64
2023/12/22 11:54:56;;;;;;;5.53;1.47;;;8.70;98.00;;;;;;4973378;28;20502;-65
2023/12/22 11:57:40;;;;;;;2.70;1.40;;;8.80;98.00;;;;;;4973951;28;20963;-64
2023/12/22 12:00:10;;;;;;;2.90;1.50;;;8.70;98.00;;;;;;4974168;28;20490;-64
2023/12/22 12:02:41;;;;;;;3.37;1.33;;;8.80;98.00;;;;;;4974313;28;20468;-64
2023/12/22 12:05:12;;;;;;;3.00;1.50;;;8.70;98.00;;;;;;4973945;28;20460;-64
2023/12/22 12:07:45;;;;;;;3.27;1.40;;;8.70;98.00;;;;;;4973877;28;20453;-64
2023/12/22 12:10:14;;;;;;;5.90;1.63;;;8.80;98.00;;;;;;4973750;28;20500;-65
2023/12/22 12:12:41;;;;;;;2.00;1.20;;;8.70;98.00;;;;;;4973173;28;20482;-64
2023/12/22 12:15:11;;;;;;;3.47;1.30;;;8.70;98.00;;;;;;4974015;28;20801;-64
2023/12/22 12:17:46;;;;;;;1.30;1.20;;;8.60;98.00;;;;;;4974727;28;20472;-64
2023/12/22 12:20:13;;;;;;;1.60;1.30;;;8.60;98.00;;;;;;4993185;28;20496;-66
2023/12/22 12:22:43;;;;;;;1.97;1.40;;;8.50;98.00;;;;;;4992927;28;20467;-65
2023/12/22 12:25:11;;;;;;;2.10;1.40;;;8.60;98.00;;;;;;4992239;28;20490;-66
2023/12/22 12:27:39;;;;;;;2.20;1.33;;;8.60;98.00;;;;;;4992788;28;20487;-65
2023/12/22 12:30:14;;;;;;;1.40;1.23;;;8.60;98.00;;;;;;4993089;28;20458;-65
2023/12/22 12:32:44;;;;;;;1.77;1.20;;;8.50;98.00;;;;;;4993016;28;20459;-65
2023/12/22 12:35:14;;;;;;;2.83;1.30;;;8.50;98.00;;;;;;4993454;28;20487;-66
2023/12/22 12:37:45;;;;;;;7.20;1.33;;;8.50;98.00;;;;;;4992801;28;20805;-65
2023/12/22 12:40:13;;;;;;;2.90;1.40;;;8.50;98.00;;;;;;4992981;28;20490;-66
2023/12/22 12:42:40;;;;;;;2.27;1.43;;;8.50;98.00;;;;;;4993044;28;20946;-65
2023/12/22 12:45:09;;;;;;;1.60;1.43;;;8.50;98.00;;;;;;4992906;28;20459;-64
2023/12/22 12:47:36;;;;;;;2.13;1.60;;;8.40;98.00;;;;;;4992012;28;20459;-66
2023/12/22 12:50:03;;;;;;;1.40;1.30;;;8.40;98.00;;;;;;4985866;28;20508;-66
2023/12/22 12:52:32;;;;;;;3.20;1.70;;;8.50;98.00;;;;;;4992459;28;21026;-66
2023/12/22 12:55:00;;;;;;;1.70;1.40;;;8.50;98.00;;;;;;4992880;28;20461;-65
2023/12/22 12:57:28;;;;;;;1.40;1.30;;;8.50;98.00;;;;;;4992382;28;20993;-65
2023/12/22 12:59:55;;;;;;;2.20;1.60;;;8.40;98.00;;;;;;4992841;28;20514;-65
2023/12/22 13:02:23;;;;;;;1.70;1.20;;;8.40;98.00;;;;;;4995678;28;20840;-65